Time;durP1;ratioP1;P1;durP2;ratioP2;P2;SDS_P1;SDS_P2;PMS_P1;PMS_P2;Temp;Humidity;BMP_temperature;BMP_pressure;BME280_temperature;BME280_humidity;BME280_pressure;Samples;Min_cycle;Max_cycle;Signal;HPM_P1;HPM_P2
2022/03/17 00:00:13;;;;;;;;;;;;;;;;;;4998563;28;19914;-25
2022/03/17 00:02:39;;;;;;;;;;;;;;;;;;4998436;28;19914;-25
2022/03/17 00:05:08;;;;;;;;;;;;;;;;;;4998365;28;20105;-25
2022/03/17 00:07:34;;;;;;;;;;;;;;;;;;4998316;28;19964;-24
2022/03/17 00:10:00;;;;;;;;;;;;;;;;;;4998586;28;19910;-25
2022/03/17 00:12:26;;;;;;;;;;;;;;;;;;4998157;28;19917;-25
2022/03/17 00:14:53;;;;;;;;;;;;;;;;;;4998484;28;20012;-25
2022/03/17 00:17:19;;;;;;;;;;;;;;;;;;4998023;28;19963;-25
2022/03/17 00:19:45;;;;;;;;;;;;;;;;;;4980987;28;19968;-25
2022/03/17 00:22:15;;;;;;;;;;;;;;;;;;4998097;28;19914;-25
2022/03/17 00:24:41;;;;;;;;;;;;;;;;;;4998293;28;19925;-25
2022/03/17 00:27:08;;;;;;;;;;;;;;;;;;4998066;28;20465;-25
2022/03/17 00:29:34;;;;;;;;;;;;;;;;;;4980667;28;19972;-25
2022/03/17 00:32:00;;;;;;;;;;;;;;;;;;4998131;28;19910;-25
2022/03/17 00:34:26;;;;;;;;;;;;;;;;;;4997849;28;19961;-25
2022/03/17 00:36:52;;;;;;;;;;;;;;;;;;4997542;28;19917;-25
2022/03/17 00:39:18;;;;;;;;;;;;;;;;;;4998039;28;19933;-25
2022/03/17 00:41:44;;;;;;;;;;;;;;;;;;4997934;28;19909;-24
2022/03/17 00:44:11;;;;;;;;;;;;;;;;;;4997972;28;19936;-24
2022/03/17 00:46:37;;;;;;;;;;;;;;;;;;4996728;28;20373;-25
2022/03/17 00:49:03;;;;;;;;;;;;;;;;;;4979770;28;19932;-25
2022/03/17 00:51:29;;;;;;;;;;;;;;;;;;4997573;28;19910;-25
2022/03/17 00:53:55;;;;;;;;;;;;;;;;;;4997497;28;20353;-24
2022/03/17 00:56:21;;;;;;;;;;;;;;;;;;4997672;28;19925;-29
2022/03/17 00:58:48;;;;;;;;;;;;;;;;;;4997388;28;20368;-24
2022/03/17 01:01:14;;;;;;;;;;;;;;;;;;4997273;28;20016;-25
2022/03/17 01:03:40;;;;;;;;;;;;;;;;;;4997607;28;20329;-24
2022/03/17 01:06:06;;;;;;;;;;;;;;;;;;4997286;28;19957;-25
2022/03/17 01:08:32;;;;;;;;;;;;;;;;;;4997383;28;20005;-25
2022/03/17 01:10:59;;;;;;;;;;;;;;;;;;4997127;28;20353;-25
2022/03/17 01:13:24;;;;;;;;;;;;;;;;;;4997107;28;19914;-25
2022/03/17 01:15:51;;;;;;;;;;;;;;;;;;4996993;28;20008;-25
2022/03/17 01:18:17;;;;;;;;;;;;;;;;;;4997199;28;19918;-25
2022/03/17 01:20:44;;;;;;;;;;;;;;;;;;4997190;28;19996;-25
2022/03/17 01:23:10;;;;;;;;;;;;;;;;;;4979687;28;19969;-25
2022/03/17 01:25:36;;;;;;;;;;;;;;;;;;4996879;28;19914;-25
2022/03/17 01:28:02;;;;;;;;;;;;;;;;;;4997056;28;19910;-25
2022/03/17 01:30:28;;;;;;;;;;;;;;;;;;4996798;28;20001;-30
2022/03/17 01:32:54;;;;;;;;;;;;;;;;;;4996844;28;19941;-29
2022/03/17 01:35:20;;;;;;;;;;;;;;;;;;4996612;28;19913;-26
2022/03/17 01:37:46;;;;;;;;;;;;;;;;;;4996648;28;20231;-29
2022/03/17 01:40:12;;;;;;;;;;;;;;;;;;4996544;28;20004;-27
2022/03/17 01:42:39;;;;;;;;;;;;;;;;;;4996847;28;19914;-30
2022/03/17 01:45:05;;;;;;;;;;;;;;;;;;4996511;28;19914;-27
2022/03/17 01:47:33;;;;;;;;;;;;;;;;;;4996206;28;20001;-30
2022/03/17 01:49:59;;;;;;;;;;;;;;;;;;4996383;28;20402;-30
2022/03/17 01:52:25;;;;;;;;;;;;;;;;;;4996490;28;19910;-33
2022/03/17 01:54:51;;;;;;;;;;;;;;;;;;4996615;28;19914;-31
2022/03/17 01:57:17;;;;;;;;;;;;;;;;;;4996426;28;19950;-33
2022/03/17 01:59:43;;;;;;;;;;;;;;;;;;4995873;28;20313;-33
2022/03/17 02:02:09;;;;;;;;;;;;;;;;;;4996410;28;19917;-26
2022/03/17 02:04:35;;;;;;;;;;;;;;;;;;4996523;28;19942;-26
2022/03/17 02:07:03;;;;;;;;;;;;;;;;;;4996302;28;19914;-29
2022/03/17 02:09:29;;;;;;;;;;;;;;;;;;4996398;28;20265;-29
2022/03/17 02:14:40;;;;;;;;;;;;;;;;;;4996377;28;19924;-29
2022/03/17 02:17:06;;;;;;;;;;;;;;;;;;4995810;28;19917;-30
2022/03/17 02:19:32;;;;;;;;;;;;;;;;;;4995940;28;19917;-28
2022/03/17 02:21:58;;;;;;;;;;;;;;;;;;4995899;28;19922;-25
2022/03/17 02:27:09;;;;;;;;;;;;;;;;;;4995856;28;19921;-28
2022/03/17 02:29:35;;;;;;;;;;;;;;;;;;4995787;28;19925;-27
2022/03/17 02:32:03;;;;;;;;;;;;;;;;;;4995730;28;19920;-28
2022/03/17 02:34:29;;;;;;;;;;;;;;;;;;4995637;28;20400;-28
2022/03/17 02:36:56;;;;;;;;;;;;;;;;;;4995809;28;19918;-28
2022/03/17 02:39:22;;;;;;;;;;;;;;;;;;4995526;28;20027;-25
2022/03/17 02:41:48;;;;;;;;;;;;;;;;;;4978483;28;19910;-29
2022/03/17 02:44:14;;;;;;;;;;;;;;;;;;4995823;28;19932;-27
2022/03/17 02:46:40;;;;;;;;;;;;;;;;;;4995813;28;19909;-29
2022/03/17 02:49:06;;;;;;;;;;;;;;;;;;4995265;28;20341;-29
2022/03/17 02:51:33;;;;;;;;;;;;;;;;;;4995765;28;19906;-28
2022/03/17 02:53:59;;;;;;;;;;;;;;;;;;4995459;28;20067;-29
2022/03/17 02:56:26;;;;;;;;;;;;;;;;;;4995346;28;19965;-25
2022/03/17 02:58:52;;;;;;;;;;;;;;;;;;4995242;28;20001;-26
2022/03/17 03:01:18;;;;;;;;;;;;;;;;;;4995391;28;20345;-33
2022/03/17 03:03:44;;;;;;;;;;;;;;;;;;4995676;28;20005;-29
2022/03/17 03:06:10;;;;;;;;;;;;;;;;;;4995314;28;19997;-30
2022/03/17 03:08:37;;;;;;;;;;;;;;;;;;4995309;28;19921;-32
2022/03/17 03:11:03;;;;;;;;;;;;;;;;;;4980042;28;19914;-25
2022/03/17 03:13:29;;;;;;;;;;;;;;;;;;4999430;28;20004;-29
2022/03/17 03:15:55;;;;;;;;;;;;;;;;;;4999510;28;19924;-26
2022/03/17 03:18:21;;;;;;;;;;;;;;;;;;4999188;28;19941;-30
2022/03/17 03:20:47;;;;;;;;;;;;;;;;;;4999517;28;19956;-28
2022/03/17 03:23:13;;;;;;;;;;;;;;;;;;4999124;28;19913;-25
2022/03/17 03:25:39;;;;;;;;;;;;;;;;;;4999147;28;19914;-30
2022/03/17 03:28:05;;;;;;;;;;;;;;;;;;4999345;28;19968;-30
2022/03/17 03:30:31;;;;;;;;;;;;;;;;;;4999062;28;19914;-28
2022/03/17 03:32:58;;;;;;;;;;;;;;;;;;4999112;28;20060;-25
2022/03/17 03:38:09;;;;;;;;;;;;;;;;;;4998956;28;19940;-37
2022/03/17 03:40:35;;;;;;;;;;;;;;;;;;4998879;28;19913;-32
2022/03/17 03:43:01;;;;;;;;;;;;;;;;;;4998877;28;20305;-33
2022/03/17 03:45:27;;;;;;;;;;;;;;;;;;4999097;28;19925;-31
2022/03/17 03:47:53;;;;;;;;;;;;;;;;;;4998512;28;19925;-28
2022/03/17 03:50:19;;;;;;;;;;;;;;;;;;4998708;28;20001;-27
2022/03/17 03:52:46;;;;;;;;;;;;;;;;;;4998738;28;19910;-25
2022/03/17 03:55:12;;;;;;;;;;;;;;;;;;4998880;28;19913;-30
2022/03/17 03:57:38;;;;;;;;;;;;;;;;;;4998426;28;20288;-27
2022/03/17 04:00:15;;;;;;;;;;;;;;;;;;4998524;28;19914;-28
2022/03/17 04:02:41;;;;;;;;;;;;;;;;;;4998760;28;20248;-28
2022/03/17 04:05:07;;;;;;;;;;;;;;;;;;4981157;28;19913;-31
2022/03/17 04:07:33;;;;;;;;;;;;;;;;;;4981050;28;20256;-27
2022/03/17 04:09:59;;;;;;;;;;;;;;;;;;4998416;28;20341;-32
2022/03/17 04:12:25;;;;;;;;;;;;;;;;;;4998561;28;20003;-27
2022/03/17 04:14:51;;;;;;;;;;;;;;;;;;4998219;28;19930;-30
2022/03/17 04:17:17;;;;;;;;;;;;;;;;;;4998180;28;19932;-28
2022/03/17 04:19:43;;;;;;;;;;;;;;;;;;4998151;28;19910;-26
2022/03/17 04:22:10;;;;;;;;;;;;;;;;;;4997754;28;19913;-26
2022/03/17 04:24:37;;;;;;;;;;;;;;;;;;4998070;28;19997;-27
2022/03/17 04:27:05;;;;;;;;;;;;;;;;;;4998168;28;19992;-29
2022/03/17 04:29:31;;;;;;;;;;;;;;;;;;4998006;28;19972;-31
2022/03/17 04:31:57;;;;;;;;;;;;;;;;;;4997959;28;19914;-30
2022/03/17 04:34:23;;;;;;;;;;;;;;;;;;4980783;28;19913;-34
2022/03/17 04:36:49;;;;;;;;;;;;;;;;;;4997513;28;19969;-31
2022/03/17 04:39:16;;;;;;;;;;;;;;;;;;4997818;28;19914;-26
2022/03/17 04:41:42;;;;;;;;;;;;;;;;;;4997693;28;19909;-28
2022/03/17 04:44:08;;;;;;;;;;;;;;;;;;4997637;28;19918;-30
2022/03/17 04:46:34;;;;;;;;;;;;;;;;;;4997538;28;19913;-25
2022/03/17 04:49:00;;;;;;;;;;;;;;;;;;4997755;28;19930;-27
2022/03/17 04:51:27;;;;;;;;;;;;;;;;;;4980113;28;19909;-25
2022/03/17 04:53:53;;;;;;;;;;;;;;;;;;4997457;28;19913;-30
2022/03/17 04:56:20;;;;;;;;;;;;;;;;;;4997195;28;20328;-28
2022/03/17 04:58:46;;;;;;;;;;;;;;;;;;4997438;28;20261;-28
2022/03/17 05:03:48;;;;;;;;;;;;;;;;;;5128895;23;20348;-24
2022/03/17 05:06:14;;;;;;;;;;;;;;;;;;4997378;28;19930;-24
2022/03/17 05:08:40;;;;;;;;;;;;;;;;;;4979673;28;19941;-24
2022/03/17 05:13:58;;;;;;;;;;;;;;;;;;5015220;28;19925;-24
2022/03/17 05:19:13;;;;;;;;;;;;;;;;;;5016441;28;20021;-24
2022/03/17 05:24:24;;;;;;;;;;;;;;;;;;4735916;26;19926;-23
2022/03/17 05:26:50;;;;;;;;;;;;;;;;;;5015787;28;19917;-23
2022/03/17 05:29:16;;;;;;;;;;;;;;;;;;5015963;28;19971;-23
2022/03/17 05:31:43;;;;;;;;;;;;;;;;;;5016203;28;20348;-23
2022/03/17 05:34:09;;;;;;;;;;;;;;;;;;4997754;28;20256;-23
2022/03/17 05:36:37;;;;;;;;;;;;;;;;;;4998489;28;19960;-23
2022/03/17 05:39:03;;;;;;;;;;;;;;;;;;4998199;28;20003;-23
2022/03/17 05:44:22;;;;;;;;;;;;;;;;;;5015725;28;20064;-25
2022/03/17 05:46:48;;;;;;;;;;;;;;;;;;4998171;28;19983;-25
2022/03/17 05:49:15;;;;;;;;;;;;;;;;;;4998865;28;19910;-25
2022/03/17 05:57:17;;;;;;;;;;;;;;;;;;5427827;23;20139;-25
2022/03/17 05:59:43;;;;;;;;;;;;;;;;;;4975200;28;20361;-25
2022/03/17 06:02:09;;;;;;;;;;;;;;;;;;4976361;28;19961;-25
2022/03/17 06:04:36;;;;;;;;;;;;;;;;;;4976130;28;19921;-26
2022/03/17 06:07:02;;;;;;;;;;;;;;;;;;4978842;28;19937;-31
2022/03/17 06:09:28;;;;;;;;;;;;;;;;;;4995439;28;20305;-25
2022/03/17 06:11:55;;;;;;;;;;;;;;;;;;4995406;28;19952;-25
2022/03/17 06:14:21;;;;;;;;;;;;;;;;;;4995615;28;19914;-25
2022/03/17 06:16:47;;;;;;;;;;;;;;;;;;4995353;28;19922;-25
2022/03/17 06:19:14;;;;;;;;;;;;;;;;;;4995836;28;19914;-26
2022/03/17 06:21:40;;;;;;;;;;;;;;;;;;4995596;28;19961;-25
2022/03/17 06:24:06;;;;;;;;;;;;;;;;;;4995031;28;19910;-25
2022/03/17 06:29:23;;;;;;;;;;;;;;;;;;4995643;28;20035;-23
2022/03/17 06:31:52;;;;;;;;;;;;;;;;;;4995194;28;19949;-23
2022/03/17 06:34:18;;;;;;;;;;;;;;;;;;4995032;28;19914;-23
2022/03/17 06:36:44;;;;;;;;;;;;;;;;;;4994633;28;20344;-24
2022/03/17 06:39:12;;;;;;;;;;;;;;;;;;4994991;28;20107;-23
2022/03/17 06:41:38;;;;;;;;;;;;;;;;;;4995184;28;19906;-23
2022/03/17 06:44:04;;;;;;;;;;;;;;;;;;4977862;28;19918;-24
2022/03/17 06:46:33;;;;;;;;;;;;;;;;;;4995046;28;19936;-24
2022/03/17 06:48:59;;;;;;;;;;;;;;;;;;4977601;28;19925;-24
2022/03/17 06:54:17;;;;;;;;;;;;;;;;;;4994742;28;20272;-24
2022/03/17 07:22:17;;;;;;;;;;;;;;;;;;4974768;28;19926;-24
2022/03/17 07:24:43;;;;;;;;;;;;;;;;;;4974798;28;19961;-24
2022/03/17 07:27:14;;;;;;;;;;;;;;;;;;4974392;28;19922;-24
2022/03/17 07:29:41;;;;;;;;;;;;;;;;;;4957412;28;19957;-25
2022/03/17 07:34:54;;;;;;;;;;;;;;;;;;4974508;28;19922;-25
2022/03/17 07:37:22;;;;;;;;;;;;;;;;;;4974590;28;19928;-25
2022/03/17 07:39:49;;;;;;;;;;;;;;;;;;4957736;28;20230;-24
2022/03/17 07:42:15;;;;;;;;;;;;;;;;;;4975309;28;19918;-23
2022/03/17 07:44:41;;;;;;;;;;;;;;;;;;4974873;28;19921;-23
2022/03/17 07:50:13;;;;;;;;;;;;;;;;;;4975011;28;19925;-23
2022/03/17 07:52:39;;;;;;;;;;;;;;;;;;4975015;28;19914;-23
2022/03/17 07:55:06;;;;;;;;;;;;;;;;;;4957831;28;19933;-24
2022/03/17 08:00:24;;;;;;;;;;;;;;;;;;4978602;28;19969;-24
2022/03/17 08:02:54;;;;;;;;;;;;;;;;;;4978527;28;20407;-24
2022/03/17 08:05:31;;;;;;;;;;;;;;;;;;4961115;28;19913;-24
2022/03/17 08:08:00;;;;;;;;;;;;;;;;;;4960879;28;19910;-24
2022/03/17 08:10:28;;;;;;;;;;;;;;;;;;4977657;28;19922;-24
2022/03/17 08:12:54;;;;;;;;;;;;;;;;;;4978197;28;19945;-24
2022/03/17 08:15:27;;;;;;;;;;;;;;;;;;4978252;28;19921;-23
2022/03/17 08:17:54;;;;;;;;;;;;;;;;;;4978177;28;20312;-24
2022/03/17 08:23:05;;;;;;;;;;;;;;;;;;4978187;28;19971;-24
2022/03/17 08:25:31;;;;;;;;;;;;;;;;;;4960823;28;19914;-24
2022/03/17 08:27:58;;;;;;;;;;;;;;;;;;4978059;28;19981;-24
2022/03/17 08:30:40;;;;;;;;;;;;;;;;;;4960780;28;19981;-24
2022/03/17 08:36:07;;;;;;;;;;;;;;;;;;4977833;28;19929;-24
2022/03/17 08:38:34;;;;;;;;;;;;;;;;;;4977434;28;20017;-24
2022/03/17 08:41:00;;;;;;;;;;;;;;;;;;4960539;28;19941;-24
2022/03/17 08:49:28;;;;;;;;;;;;;;;;;;4982661;28;19924;-24
2022/03/17 08:54:46;;;;;;;;;;;;;;;;;;4977250;28;19921;-24
2022/03/17 08:57:13;;;;;;;;;;;;;;;;;;4977326;28;19925;-24
2022/03/17 08:59:39;;;;;;;;;;;;;;;;;;4977654;28;19972;-24
2022/03/17 09:02:05;;;;;;;;;;;;;;;;;;4978156;28;20229;-24
2022/03/17 09:04:31;;;;;;;;;;;;;;;;;;4977342;28;19914;-24
2022/03/17 09:06:59;;;;;;;;;;;;;;;;;;4976907;28;20343;-24
2022/03/17 09:09:25;;;;;;;;;;;;;;;;;;4958204;28;19914;-24
2022/03/17 09:11:51;;;;;;;;;;;;;;;;;;4959438;28;19933;-24
2022/03/17 09:14:17;;;;;;;;;;;;;;;;;;4977441;28;19910;-24
2022/03/17 09:16:43;;;;;;;;;;;;;;;;;;4977024;28;19918;-24
2022/03/17 09:19:09;;;;;;;;;;;;;;;;;;4977082;28;19949;-24
2022/03/17 09:21:36;;;;;;;;;;;;;;;;;;4976864;28;19910;-25
2022/03/17 09:24:03;;;;;;;;;;;;;;;;;;4976733;28;20008;-25
2022/03/17 09:26:29;;;;;;;;;;;;;;;;;;4976537;28;19906;-24
2022/03/17 09:28:56;;;;;;;;;;;;;;;;;;4976645;28;19933;-24
2022/03/17 09:31:22;;;;;;;;;;;;;;;;;;4977216;28;20346;-24
2022/03/17 09:33:49;;;;;;;;;;;;;;;;;;4976730;28;19914;-26
2022/03/17 09:36:16;;;;;;;;;;;;;;;;;;4976731;28;20392;-24
2022/03/17 09:38:42;;;;;;;;;;;;;;;;;;4976827;28;19910;-24
2022/03/17 09:41:33;;;;;;;;;;;;;;;;;;4976329;28;19915;-24
2022/03/17 09:43:54;;;;;;;;;;;;;;;;;;4974975;28;19979;-24
2022/03/17 09:46:24;;;;;;;;;;;;;;;;;;4958624;28;19924;-25
2022/03/17 09:48:54;;;;;;;;;;;;;;;;;;4958735;28;19910;-24
2022/03/17 09:51:20;;;;;;;;;;;;;;;;;;4958610;28;19915;-24
2022/03/17 09:53:46;;;;;;;;;;;;;;;;;;4975810;28;19914;-24
2022/03/17 09:56:12;;;;;;;;;;;;;;;;;;4975887;28;20261;-24
2022/03/17 09:58:38;;;;;;;;;;;;;;;;;;4975548;28;19925;-24
2022/03/17 10:01:06;;;;;;;;;;;;;;;;;;4975626;28;20312;-24
2022/03/17 10:03:34;;;;;;;;;;;;;;;;;;4958438;28;19941;-25
2022/03/17 10:06:05;;;;;;;;;;;;;;;;;;4975680;28;19914;-25
2022/03/17 10:08:33;;;;;;;;;;;;;;;;;;4975393;28;19921;-24
2022/03/17 10:10:59;;;;;;;;;;;;;;;;;;4975308;28;19922;-25
2022/03/17 10:13:28;;;;;;;;;;;;;;;;;;4975313;28;20001;-25
2022/03/17 10:15:54;;;;;;;;;;;;;;;;;;4975109;28;19929;-24
2022/03/17 10:18:23;;;;;;;;;;;;;;;;;;4975409;28;19930;-24
2022/03/17 10:20:49;;;;;;;;;;;;;;;;;;4957943;28;19922;-25
2022/03/17 10:23:15;;;;;;;;;;;;;;;;;;4958712;28;19919;-24
2022/03/17 10:25:41;;;;;;;;;;;;;;;;;;4959424;28;20237;-25
2022/03/17 10:28:07;;;;;;;;;;;;;;;;;;4975803;28;19910;-24
2022/03/17 10:30:34;;;;;;;;;;;;;;;;;;4975555;28;19965;-24
2022/03/17 10:33:03;;;;;;;;;;;;;;;;;;4975574;28;19914;-24
2022/03/17 10:35:33;;;;;;;;;;;;;;;;;;4975655;28;19914;-24
2022/03/17 10:38:00;;;;;;;;;;;;;;;;;;4975198;28;19922;-24
2022/03/17 10:40:26;;;;;;;;;;;;;;;;;;4975152;28;20005;-24
2022/03/17 10:42:52;;;;;;;;;;;;;;;;;;4975180;28;19921;-24
2022/03/17 10:45:18;;;;;;;;;;;;;;;;;;4975370;28;19921;-25
2022/03/17 10:47:48;;;;;;;;;;;;;;;;;;4975380;28;20352;-24
2022/03/17 10:50:18;;;;;;;;;;;;;;;;;;4975235;28;19914;-25
2022/03/17 10:52:46;;;;;;;;;;;;;;;;;;4958187;28;20426;-24
2022/03/17 10:55:12;;;;;;;;;;;;;;;;;;4958238;28;20226;-25
2022/03/17 10:57:39;;;;;;;;;;;;;;;;;;4975428;28;19914;-25
2022/03/17 11:00:10;;;;;;;;;;;;;;;;;;4975184;28;20388;-25
2022/03/17 11:02:38;;;;;;;;;;;;;;;;;;4975573;28;19910;-25
2022/03/17 11:05:10;;;;;;;;;;;;;;;;;;4975398;28;20336;-25
2022/03/17 11:07:38;;;;;;;;;;;;;;;;;;4975479;28;19914;-25
2022/03/17 11:10:05;;;;;;;;;;;;;;;;;;4974856;28;20340;-25
2022/03/17 11:12:31;;;;;;;;;;;;;;;;;;4975488;28;19918;-25
2022/03/17 11:15:00;;;;;;;;;;;;;;;;;;4975276;28;19915;-25
2022/03/17 11:17:26;;;;;;;;;;;;;;;;;;4975039;28;19950;-26
2022/03/17 11:19:53;;;;;;;;;;;;;;;;;;4958387;28;19929;-26
2022/03/17 11:22:23;;;;;;;;;;;;;;;;;;4975705;28;20281;-25
2022/03/17 11:24:49;;;;;;;;;;;;;;;;;;4975233;28;20311;-25
2022/03/17 11:27:15;;;;;;;;;;;;;;;;;;4975165;28;19926;-26
2022/03/17 11:29:44;;;;;;;;;;;;;;;;;;4975321;28;19996;-25
2022/03/17 11:32:10;;;;;;;;;;;;;;;;;;4976874;28;19937;-26
2022/03/17 11:34:41;;;;;;;;;;;;;;;;;;4979021;28;19961;-26
2022/03/17 11:37:07;;;;;;;;;;;;;;;;;;4978518;28;19914;-26
2022/03/17 11:39:36;;;;;;;;;;;;;;;;;;4979254;28;19921;-25
2022/03/17 11:42:05;;;;;;;;;;;;;;;;;;4978690;28;19940;-24
2022/03/17 11:44:33;;;;;;;;;;;;;;;;;;4978798;28;19910;-24
2022/03/17 11:47:00;;;;;;;;;;;;;;;;;;4978561;28;20360;-23
2022/03/17 11:49:27;;;;;;;;;;;;;;;;;;4978853;28;20265;-23
2022/03/17 11:51:53;;;;;;;;;;;;;;;;;;4978623;28;19993;-24
2022/03/17 11:54:20;;;;;;;;;;;;;;;;;;4978174;28;19980;-24
2022/03/17 11:59:37;;;;;;;;;;;;;;;;;;4977799;28;19969;-24
2022/03/17 12:02:03;;;;;;;;;;;;;;;;;;4977409;28;20277;-24
2022/03/17 12:04:31;;;;;;;;;;;;;;;;;;4977511;28;19954;-24
2022/03/17 12:06:59;;;;;;;;;;;;;;;;;;4977171;28;19973;-23
2022/03/17 12:09:25;;;;;;;;;;;;;;;;;;4977258;28;19918;-24
2022/03/17 12:11:52;;;;;;;;;;;;;;;;;;4976970;28;20102;-30
2022/03/17 12:14:20;;;;;;;;;;;;;;;;;;4959891;28;20524;-23
2022/03/17 12:16:46;;;;;;;;;;;;;;;;;;4959685;28;19984;-24
2022/03/17 12:19:13;;;;;;;;;;;;;;;;;;4976434;28;19913;-23
2022/03/17 12:21:41;;;;;;;;;;;;;;;;;;4977924;28;20214;-24
2022/03/17 12:24:07;;;;;;;;;;;;;;;;;;4977630;28;19993;-23
2022/03/17 12:26:35;;;;;;;;;;;;;;;;;;4960989;28;19918;-23
2022/03/17 12:29:02;;;;;;;;;;;;;;;;;;4960785;28;20001;-24
2022/03/17 12:31:28;;;;;;;;;;;;;;;;;;4960988;28;19910;-25
2022/03/17 12:33:57;;;;;;;;;;;;;;;;;;4977852;28;19934;-26
2022/03/17 12:39:15;;;;;;;;;;;;;;;;;;4977631;28;19966;-25
2022/03/17 12:41:42;;;;;;;;;;;;;;;;;;4977795;28;19914;-26
2022/03/17 12:44:08;;;;;;;;;;;;;;;;;;4977960;28;19910;-25
2022/03/17 12:46:41;;;;;;;;;;;;;;;;;;4977775;28;19960;-25
2022/03/17 12:49:10;;;;;;;;;;;;;;;;;;4977950;28;19914;-26
2022/03/17 12:51:42;;;;;;;;;;;;;;;;;;4977577;28;20316;-25
2022/03/17 12:54:10;;;;;;;;;;;;;;;;;;4977512;28;19921;-25
2022/03/17 12:56:37;;;;;;;;;;;;;;;;;;4977402;28;20009;-25
2022/03/17 12:59:03;;;;;;;;;;;;;;;;;;4977159;28;19914;-25
2022/03/17 13:01:29;;;;;;;;;;;;;;;;;;4976937;28;19922;-25
2022/03/17 13:03:55;;;;;;;;;;;;;;;;;;4976893;28;20345;-24
2022/03/17 13:09:06;;;;;;;;;;;;;;;;;;4977505;28;20432;-24
2022/03/17 13:14:21;;;;;;;;;;;;;;;;;;4977051;28;20350;-25
2022/03/17 13:16:47;;;;;;;;;;;;;;;;;;4959792;28;20008;-25
2022/03/17 13:19:16;;;;;;;;;;;;;;;;;;4976934;28;20365;-24
2022/03/17 13:21:44;;;;;;;;;;;;;;;;;;4976886;28;19910;-25
2022/03/17 13:24:10;;;;;;;;;;;;;;;;;;4977070;28;19910;-25
2022/03/17 13:26:37;;;;;;;;;;;;;;;;;;4976912;28;20306;-25
2022/03/17 13:29:04;;;;;;;;;;;;;;;;;;4976907;28;19997;-25
2022/03/17 13:31:30;;;;;;;;;;;;;;;;;;4976388;28;20257;-25
2022/03/17 13:33:57;;;;;;;;;;;;;;;;;;4976431;28;20376;-25
2022/03/17 13:36:24;;;;;;;;;;;;;;;;;;4976279;28;20248;-25
2022/03/17 13:38:50;;;;;;;;;;;;;;;;;;4976605;28;19997;-25
2022/03/17 13:41:17;;;;;;;;;;;;;;;;;;4976668;28;19945;-25
2022/03/17 13:43:43;;;;;;;;;;;;;;;;;;4976522;28;19921;-25
2022/03/17 13:46:11;;;;;;;;;;;;;;;;;;4976704;28;20000;-25
2022/03/17 13:48:38;;;;;;;;;;;;;;;;;;4959633;28;20014;-25
2022/03/17 13:51:09;;;;;;;;;;;;;;;;;;4959217;28;20482;-25
2022/03/17 13:53:36;;;;;;;;;;;;;;;;;;4976568;28;20004;-24
2022/03/17 13:56:03;;;;;;;;;;;;;;;;;;4975726;28;19910;-25
2022/03/17 13:58:29;;;;;;;;;;;;;;;;;;4975993;28;19914;-24
2022/03/17 14:00:55;;;;;;;;;;;;;;;;;;4976199;28;20218;-24
2022/03/17 14:03:24;;;;;;;;;;;;;;;;;;4959181;28;19910;-24
2022/03/17 14:05:53;;;;;;;;;;;;;;;;;;4959357;28;19921;-24
2022/03/17 14:08:21;;;;;;;;;;;;;;;;;;4958697;28;19953;-25
2022/03/17 14:10:47;;;;;;;;;;;;;;;;;;4975761;28;19929;-24
2022/03/17 14:13:15;;;;;;;;;;;;;;;;;;4976138;28;20016;-25
2022/03/17 14:15:41;;;;;;;;;;;;;;;;;;4975821;28;19910;-24
2022/03/17 14:18:07;;;;;;;;;;;;;;;;;;4958587;28;19918;-25
2022/03/17 14:20:33;;;;;;;;;;;;;;;;;;4976057;28;20399;-24
2022/03/17 14:25:45;;;;;;;;;;;;;;;;;;4975944;28;19925;-24
2022/03/17 14:28:11;;;;;;;;;;;;;;;;;;4975727;28;20004;-24
2022/03/17 14:30:37;;;;;;;;;;;;;;;;;;4975827;28;20353;-24
2022/03/17 14:33:03;;;;;;;;;;;;;;;;;;4975931;28;19914;-24
2022/03/17 14:35:29;;;;;;;;;;;;;;;;;;4975617;28;19910;-24
2022/03/17 14:37:55;;;;;;;;;;;;;;;;;;4975936;28;19926;-24
2022/03/17 14:40:21;;;;;;;;;;;;;;;;;;4975847;28;20336;-25
2022/03/17 14:42:50;;;;;;;;;;;;;;;;;;4975501;28;19910;-25
2022/03/17 14:45:16;;;;;;;;;;;;;;;;;;4975680;28;19917;-25
2022/03/17 14:47:42;;;;;;;;;;;;;;;;;;4975629;28;19917;-24
2022/03/17 14:50:08;;;;;;;;;;;;;;;;;;4975476;28;19937;-24
2022/03/17 14:52:34;;;;;;;;;;;;;;;;;;4958852;28;19911;-24
2022/03/17 14:55:01;;;;;;;;;;;;;;;;;;4958192;28;20009;-24
2022/03/17 14:57:27;;;;;;;;;;;;;;;;;;4975416;28;19954;-24
2022/03/17 14:59:54;;;;;;;;;;;;;;;;;;4975273;28;20360;-24
2022/03/17 15:02:21;;;;;;;;;;;;;;;;;;4975378;28;19949;-24
2022/03/17 15:04:51;;;;;;;;;;;;;;;;;;4975403;28;19910;-24
2022/03/17 15:07:19;;;;;;;;;;;;;;;;;;4952457;28;19985;-25
2022/03/17 15:09:46;;;;;;;;;;;;;;;;;;4960914;28;20262;-25
2022/03/17 15:12:13;;;;;;;;;;;;;;;;;;4977512;28;19997;-26
2022/03/17 15:14:41;;;;;;;;;;;;;;;;;;4978076;28;19911;-25
2022/03/17 15:17:08;;;;;;;;;;;;;;;;;;4960525;28;19918;-25
2022/03/17 15:19:35;;;;;;;;;;;;;;;;;;4976911;28;20326;-25
2022/03/17 15:22:03;;;;;;;;;;;;;;;;;;4960783;28;19960;-25
2022/03/17 15:24:30;;;;;;;;;;;;;;;;;;4978158;28;19946;-25
2022/03/17 15:30:07;;;;;;;;;;;;;;;;;;4977775;28;19950;-26
2022/03/17 15:38:10;;;;;;;;;;;;;;;;;;4975949;28;19972;-24
2022/03/17 15:40:38;;;;;;;;;;;;;;;;;;4975234;28;19925;-25
2022/03/17 15:43:05;;;;;;;;;;;;;;;;;;4975370;28;19910;-25
2022/03/17 15:45:31;;;;;;;;;;;;;;;;;;4958070;28;19977;-25
2022/03/17 15:47:58;;;;;;;;;;;;;;;;;;4957846;28;20309;-25
2022/03/17 15:50:26;;;;;;;;;;;;;;;;;;4975190;28;19914;-25
2022/03/17 15:52:52;;;;;;;;;;;;;;;;;;4974955;28;19925;-25
2022/03/17 15:55:20;;;;;;;;;;;;;;;;;;4957806;28;20333;-24
2022/03/17 15:57:47;;;;;;;;;;;;;;;;;;4974723;28;19950;-25
2022/03/17 16:00:18;;;;;;;;;;;;;;;;;;4974879;28;19914;-24
2022/03/17 16:02:45;;;;;;;;;;;;;;;;;;4975506;28;19914;-24
2022/03/17 16:05:13;;;;;;;;;;;;;;;;;;4975086;28;19989;-25
2022/03/17 16:07:41;;;;;;;;;;;;;;;;;;4974709;28;19921;-24
2022/03/17 16:24:27;;;;;;;;;;;;;;;;;;4977695;28;20151;-24
2022/03/17 16:35:20;;;;;;;;;;;;;;;;;;4996098;28;20264;-24
2022/03/17 16:37:47;;;;;;;;;;;;;;;;;;4996717;28;19918;-24
2022/03/17 16:40:13;;;;;;;;;;;;;;;;;;4997748;28;19917;-24
2022/03/17 16:42:39;;;;;;;;;;;;;;;;;;4995922;28;19914;-24
2022/03/17 16:45:06;;;;;;;;;;;;;;;;;;5016859;28;19984;-24
2022/03/17 16:47:34;;;;;;;;;;;;;;;;;;5016872;28;20000;-24
2022/03/17 16:50:00;;;;;;;;;;;;;;;;;;4999454;28;19913;-25
2022/03/17 16:52:27;;;;;;;;;;;;;;;;;;4999075;28;20013;-24
2022/03/17 16:54:59;;;;;;;;;;;;;;;;;;4999299;28;19910;-25
2022/03/17 16:57:25;;;;;;;;;;;;;;;;;;5016794;28;19979;-26
2022/03/17 16:59:53;;;;;;;;;;;;;;;;;;5016852;28;19924;-24
2022/03/17 17:02:21;;;;;;;;;;;;;;;;;;5016438;28;19909;-24
2022/03/17 17:07:39;;;;;;;;;;;;;;;;;;5016744;28;19924;-24
2022/03/17 17:10:05;;;;;;;;;;;;;;;;;;5016634;28;19917;-24
2022/03/17 17:12:32;;;;;;;;;;;;;;;;;;5016540;28;20033;-24
2022/03/17 17:15:01;;;;;;;;;;;;;;;;;;4998958;28;19914;-24
2022/03/17 17:17:29;;;;;;;;;;;;;;;;;;5016535;28;19921;-24
2022/03/17 17:19:55;;;;;;;;;;;;;;;;;;5016235;28;19917;-24
2022/03/17 17:22:22;;;;;;;;;;;;;;;;;;5016159;28;19913;-25
2022/03/17 17:33:05;;;;;;;;;;;;;;;;;;5015886;28;19923;-25
2022/03/17 17:35:35;;;;;;;;;;;;;;;;;;4998250;28;20030;-25
2022/03/17 17:38:05;;;;;;;;;;;;;;;;;;5016114;28;19952;-25
2022/03/17 17:40:34;;;;;;;;;;;;;;;;;;5015858;28;19921;-25
2022/03/17 17:43:05;;;;;;;;;;;;;;;;;;4998442;28;19962;-25
2022/03/17 17:45:31;;;;;;;;;;;;;;;;;;5015677;28;19925;-25
2022/03/17 17:48:01;;;;;;;;;;;;;;;;;;5015596;28;19910;-25
2022/03/17 17:50:27;;;;;;;;;;;;;;;;;;5015853;28;19914;-25
2022/03/17 17:52:53;;;;;;;;;;;;;;;;;;5015416;28;19910;-24
2022/03/17 17:55:20;;;;;;;;;;;;;;;;;;5016283;28;19917;-24
2022/03/17 17:57:55;;;;;;;;;;;;;;;;;;5015556;28;19952;-24
2022/03/17 18:00:22;;;;;;;;;;;;;;;;;;5016173;28;19968;-24
2022/03/17 18:02:49;;;;;;;;;;;;;;;;;;5015405;28;19910;-24
2022/03/17 18:05:17;;;;;;;;;;;;;;;;;;5015429;28;20392;-24
2022/03/17 18:07:45;;;;;;;;;;;;;;;;;;5015668;28;19964;-24
2022/03/17 18:10:11;;;;;;;;;;;;;;;;;;5015601;28;20004;-24
2022/03/17 18:12:53;;;;;;;;;;;;;;;;;;4998062;28;19913;-27
2022/03/17 18:15:23;;;;;;;;;;;;;;;;;;5015514;28;19909;-24
2022/03/17 18:17:50;;;;;;;;;;;;;;;;;;4997962;28;19917;-24
2022/03/17 18:20:16;;;;;;;;;;;;;;;;;;5015138;28;19918;-24
2022/03/17 18:22:44;;;;;;;;;;;;;;;;;;5014788;28;19971;-24
2022/03/17 18:25:12;;;;;;;;;;;;;;;;;;5015086;28;19913;-24
2022/03/17 18:27:39;;;;;;;;;;;;;;;;;;4997387;28;19909;-24
2022/03/17 18:30:05;;;;;;;;;;;;;;;;;;5015220;28;19929;-24
2022/03/17 18:32:31;;;;;;;;;;;;;;;;;;5014773;28;20004;-24
2022/03/17 18:34:58;;;;;;;;;;;;;;;;;;5014952;28;19909;-24
2022/03/17 18:37:27;;;;;;;;;;;;;;;;;;5014542;28;19999;-24
2022/03/17 18:39:54;;;;;;;;;;;;;;;;;;5014532;28;20294;-24
2022/03/17 18:42:20;;;;;;;;;;;;;;;;;;4996867;28;19909;-24
2022/03/17 18:44:47;;;;;;;;;;;;;;;;;;5014439;28;20254;-24
2022/03/17 18:47:13;;;;;;;;;;;;;;;;;;5014206;28;19967;-24
2022/03/17 18:49:39;;;;;;;;;;;;;;;;;;5014153;28;19917;-24
2022/03/17 18:52:06;;;;;;;;;;;;;;;;;;5014240;28;19913;-24
2022/03/17 18:54:32;;;;;;;;;;;;;;;;;;5014172;28;19960;-24
2022/03/17 18:56:58;;;;;;;;;;;;;;;;;;5014242;28;19913;-24
2022/03/17 18:59:25;;;;;;;;;;;;;;;;;;5014030;28;20345;-24
2022/03/17 19:01:52;;;;;;;;;;;;;;;;;;5014177;28;19963;-24